createdAt,value
2019-02-16T00:03:22.078Z,98.40
2019-02-16T00:07:26.286Z,98.50
2019-02-16T00:11:30.644Z,98.80
2019-02-16T00:15:34.820Z,99.10
2019-02-16T00:19:39.018Z,99.20
2019-02-16T00:23:43.222Z,99.10
2019-02-16T00:27:47.414Z,99.10
2019-02-16T00:31:51.582Z,99.30
2019-02-16T00:35:55.770Z,99.20
2019-02-16T00:39:59.896Z,98.60
2019-02-16T00:44:04.063Z,98.70
2019-02-16T00:48:08.254Z,99.00
2019-02-16T00:52:12.338Z,99.20
2019-02-16T00:56:16.446Z,99.30
2019-02-16T01:00:20.636Z,98.90
2019-02-16T01:04:24.818Z,99.30
2019-02-16T01:08:29.026Z,98.80
2019-02-16T01:12:33.115Z,99.10
2019-02-16T01:16:37.291Z,99.20
2019-02-16T01:20:41.498Z,99.40
2019-02-16T01:24:45.790Z,99.30
2019-02-16T01:28:49.946Z,99.40
2019-02-16T01:32:54.026Z,99.30
2019-02-16T01:36:58.230Z,99.40
2019-02-16T01:41:02.425Z,99.30
2019-02-16T01:45:07.279Z,99.50
2019-02-16T01:49:11.462Z,99.50
2019-02-16T01:53:15.618Z,99.50
2019-02-16T01:57:19.727Z,99.20
2019-02-16T02:01:23.906Z,99.00
2019-02-16T02:05:28.094Z,99.00
2019-02-16T02:09:32.274Z,98.90
2019-02-16T02:13:36.426Z,99.30
2019-02-16T02:17:40.557Z,99.30
2019-02-16T02:21:44.827Z,99.00
2019-02-16T02:25:49.010Z,98.90
2019-02-16T02:29:53.194Z,99.00
2019-02-16T02:33:57.343Z,98.90
2019-02-16T02:38:01.527Z,98.80
2019-02-16T02:42:05.717Z,98.80
2019-02-16T02:46:09.914Z,99.00
2019-02-16T02:50:14.019Z,99.20
2019-02-16T02:54:18.102Z,99.30
2019-02-16T02:58:22.231Z,99.20
2019-02-16T03:02:26.427Z,99.20
2019-02-16T03:06:30.619Z,99.30
2019-02-16T03:10:34.798Z,98.70
2019-02-16T03:14:38.895Z,99.20
2019-02-16T03:18:43.019Z,99.30
2019-02-16T03:23:30.290Z,99.30
2019-02-16T03:28:01.738Z,99.10
2019-02-16T03:32:46.006Z,99.20
2019-02-16T03:37:47.374Z,99.10
2019-02-16T03:41:51.487Z,99.10
2019-02-16T03:45:55.673Z,99.10
2019-02-16T03:49:59.762Z,98.60
2019-02-16T03:54:03.866Z,99.20
2019-02-16T03:58:07.991Z,99.20
2019-02-16T04:02:12.167Z,99.30
2019-02-16T04:06:16.375Z,99.30
2019-02-16T04:10:20.539Z,99.30
2019-02-16T04:14:24.718Z,99.20
2019-02-16T04:18:28.930Z,99.20
2019-02-16T04:22:33.118Z,99.20
2019-02-16T04:26:37.284Z,99.20
2019-02-16T04:30:41.481Z,99.30
2019-02-16T04:34:45.667Z,99.30
2019-02-16T04:38:49.851Z,99.30
2019-02-16T04:42:54.035Z,99.20
2019-02-16T04:46:58.246Z,98.80
2019-02-16T04:51:02.407Z,99.20
2019-02-16T04:55:07.526Z,99.10
2019-02-16T04:59:11.714Z,99.10
2019-02-16T05:03:15.912Z,99.20
2019-02-16T05:07:20.092Z,99.20
2019-02-16T05:11:24.246Z,99.20
2019-02-16T05:15:28.438Z,99.20
2019-02-16T05:19:32.642Z,99.20
2019-02-16T05:23:36.751Z,99.20
2019-02-16T05:27:40.850Z,99.20
2019-02-16T05:31:45.126Z,99.20
2019-02-16T05:35:49.316Z,99.30
2019-02-16T05:39:53.506Z,99.30
2019-02-16T05:43:57.691Z,99.20
2019-02-16T05:48:01.866Z,99.30
2019-02-16T05:52:05.956Z,99.40
2019-02-16T05:56:10.129Z,99.30
2019-02-16T06:00:14.913Z,99.20
2019-02-16T06:04:19.086Z,99.20
2019-02-16T06:08:23.277Z,99.20
2019-02-16T06:12:27.433Z,99.20
2019-02-16T06:16:31.626Z,99.10
2019-02-16T06:20:35.834Z,99.10
2019-02-16T06:24:40.019Z,99.10
2019-02-16T06:28:44.202Z,99.10
2019-02-16T06:32:48.287Z,99.10
2019-02-16T06:36:52.469Z,99.20
2019-02-16T06:40:56.644Z,99.20
2019-02-16T06:45:00.829Z,99.20
2019-02-16T06:49:04.936Z,99.00
2019-02-16T06:53:13.281Z,99.30
2019-02-16T06:57:24.390Z,99.40
2019-02-16T07:01:28.606Z,99.70
2019-02-16T07:05:32.786Z,99.80
2019-02-16T07:09:36.888Z,99.90
2019-02-16T07:13:41.077Z,99.90
2019-02-16T07:17:52.213Z,99.90
2019-02-16T07:21:56.563Z,99.90
2019-02-16T07:26:00.822Z,99.90
2019-02-16T07:30:09.281Z,99.90
2019-02-16T07:34:13.398Z,99.80
2019-02-16T07:38:17.530Z,99.60
2019-02-16T07:42:21.715Z,99.90
2019-02-16T07:46:32.426Z,99.60
2019-02-16T07:50:44.976Z,99.40
2019-02-16T07:55:09.123Z,99.50
2019-02-16T07:59:32.370Z,99.40
2019-02-16T08:03:45.398Z,99.30
2019-02-16T08:08:07.321Z,99.50
2019-02-16T08:12:36.490Z,99.60
2019-02-16T08:16:52.377Z,99.70
2019-02-16T08:21:14.101Z,99.70
2019-02-16T08:25:36.082Z,99.70
2019-02-16T08:30:02.346Z,99.90
2019-02-16T08:34:21.906Z,99.90
2019-02-16T08:38:48.158Z,99.90
2019-02-16T08:43:12.622Z,99.90
2019-02-16T08:47:27.406Z,99.90
2019-02-16T08:51:44.942Z,99.00
2019-02-16T08:56:06.853Z,99.10
2019-02-16T09:00:35.582Z,98.80
2019-02-16T09:04:58.799Z,98.30
2019-02-16T09:09:29.692Z,98.00
2019-02-16T09:13:49.570Z,97.70
2019-02-16T09:18:00.234Z,97.10
2019-02-16T09:22:21.370Z,96.60
2019-02-16T09:26:37.550Z,96.20
2019-02-16T09:30:59.127Z,95.70
2019-02-16T09:35:24.413Z,93.60
2019-02-16T09:39:52.496Z,92.70
2019-02-16T09:44:07.315Z,92.50
2019-02-16T09:48:23.403Z,93.70
2019-02-16T09:52:34.359Z,93.20
2019-02-16T09:56:55.637Z,92.80
2019-02-16T10:01:36.886Z,92.60
2019-02-16T10:05:52.840Z,92.10
2019-02-16T10:10:07.483Z,91.60
2019-02-16T10:14:36.582Z,89.20
2019-02-16T10:18:55.778Z,90.00
2019-02-16T10:23:11.958Z,89.30
2019-02-16T10:27:38.390Z,89.00
2019-02-16T10:32:03.759Z,87.10
2019-02-16T10:36:47.515Z,87.40
2019-02-16T10:41:28.930Z,90.20
2019-02-16T10:45:50.874Z,88.80
2019-02-16T10:50:23.161Z,90.00
2019-02-16T10:54:36.146Z,88.10
2019-02-16T10:58:53.178Z,91.00
2019-02-16T11:03:02.785Z,90.40
2019-02-16T11:07:11.834Z,90.10
2019-02-16T11:11:35.077Z,87.10
2019-02-16T11:15:58.681Z,84.90
2019-02-16T11:20:19.635Z,81.20
2019-02-16T11:24:41.563Z,80.10
2019-02-16T11:29:04.538Z,77.60
2019-02-16T11:33:26.426Z,79.00
2019-02-16T11:37:55.514Z,77.90
2019-02-16T11:42:13.238Z,79.10
2019-02-16T11:46:37.078Z,82.00
2019-02-16T11:51:15.807Z,81.90
2019-02-16T11:55:45.087Z,81.80
2019-02-16T12:00:08.438Z,81.20
2019-02-16T12:04:29.129Z,80.90
2019-02-16T12:08:52.414Z,79.50
2019-02-16T12:13:06.642Z,79.70
2019-02-16T12:17:28.454Z,77.60
2019-02-16T12:21:43.307Z,73.90
2019-02-16T12:26:01.276Z,74.00
2019-02-16T12:30:27.984Z,75.50
2019-02-16T12:34:40.693Z,76.00
2019-02-16T12:38:50.621Z,73.00
2019-02-16T12:43:16.818Z,73.60
2019-02-16T12:47:43.092Z,75.00
2019-02-16T12:51:57.175Z,77.10
2019-02-16T12:56:18.830Z,76.50
2019-02-16T13:00:47.902Z,74.10
2019-02-16T13:05:12.638Z,73.10
2019-02-16T13:09:22.866Z,73.70
2019-02-16T13:13:46.119Z,76.30
2019-02-16T13:18:15.427Z,77.40
2019-02-16T13:22:38.690Z,77.70
2019-02-16T13:27:09.270Z,77.20
2019-02-16T13:31:20.733Z,78.30
2019-02-16T13:35:35.886Z,77.00
2019-02-16T13:39:50.691Z,78.00
2019-02-16T13:44:40.168Z,80.30
2019-02-16T13:48:49.255Z,75.90
2019-02-16T13:53:10.982Z,75.50
2019-02-16T13:57:46.043Z,77.30
2019-02-16T14:02:00.082Z,77.80
2019-02-16T14:06:26.359Z,81.30
2019-02-16T14:10:42.110Z,81.40
2019-02-16T14:14:55.335Z,80.90
2019-02-16T14:18:59.541Z,80.70
2019-02-16T14:23:03.666Z,80.60
2019-02-16T14:27:07.798Z,79.40
2019-02-16T14:31:14.542Z,79.90
2019-02-16T14:35:18.645Z,79.90
2019-02-16T14:39:30.501Z,79.00
2019-02-16T14:43:34.693Z,79.50
2019-02-16T14:47:38.914Z,81.20
2019-02-16T14:51:43.360Z,81.50
2019-02-16T14:55:53.856Z,81.00
2019-02-16T14:59:53.389Z,80.50
2019-02-16T15:04:00.482Z,81.20
2019-02-16T15:08:04.655Z,79.50
2019-02-16T15:12:09.906Z,80.80
2019-02-16T15:16:14.054Z,82.20
2019-02-16T15:20:18.287Z,82.50
2019-02-16T15:24:22.496Z,79.50
2019-02-16T15:28:26.686Z,80.40
2019-02-16T15:32:30.808Z,82.00
2019-02-16T15:36:34.982Z,82.80
2019-02-16T15:40:39.098Z,82.60
2019-02-16T15:44:43.322Z,82.50
2019-02-16T15:48:47.666Z,81.30
2019-02-16T15:52:52.151Z,80.60
2019-02-16T15:56:56.379Z,81.90
2019-02-16T16:01:00.552Z,81.30
2019-02-16T16:05:04.781Z,80.30
2019-02-16T16:09:40.044Z,80.60
2019-02-16T16:13:59.346Z,81.10
2019-02-16T16:18:14.073Z,81.80
2019-02-16T16:22:26.486Z,83.20
2019-02-16T16:26:57.848Z,84.10
2019-02-16T16:31:26.882Z,85.60
2019-02-16T16:35:46.522Z,86.40
2019-02-16T16:39:57.954Z,87.20
2019-02-16T16:44:26.958Z,86.90
2019-02-16T16:49:05.388Z,87.80
2019-02-16T16:53:31.496Z,88.10
2019-02-16T16:57:42.740Z,89.10
2019-02-16T17:01:52.877Z,88.80
2019-02-16T17:06:03.329Z,89.40
2019-02-16T17:10:29.618Z,89.70
2019-02-16T17:14:47.063Z,89.70
2019-02-16T17:19:05.570Z,90.00
2019-02-16T17:23:31.829Z,90.10
2019-02-16T17:27:46.503Z,90.00
2019-02-16T17:32:08.179Z,90.20
2019-02-16T17:36:21.507Z,90.30
2019-02-16T17:40:50.550Z,90.40
2019-02-16T17:45:12.302Z,90.40
2019-02-16T17:49:25.121Z,90.20
2019-02-16T17:53:48.358Z,90.50
2019-02-16T17:58:17.398Z,90.60
2019-02-16T18:02:47.553Z,90.60
2019-02-16T18:07:16.847Z,90.60
2019-02-16T18:11:33.151Z,90.60
2019-02-16T18:15:59.414Z,90.60
2019-02-16T18:20:13.438Z,90.70
2019-02-16T18:24:45.719Z,90.60
2019-02-16T18:29:16.970Z,90.80
2019-02-16T18:33:38.059Z,90.70
2019-02-16T18:37:50.205Z,90.60
2019-02-16T18:42:17.548Z,90.70
2019-02-16T18:46:33.439Z,90.90
2019-02-16T18:50:56.690Z,90.90
2019-02-16T18:55:16.120Z,91.00
2019-02-16T18:59:40.334Z,90.90
2019-02-16T19:04:12.720Z,91.10
2019-02-16T19:08:39.116Z,91.10
2019-02-16T19:12:57.587Z,91.20
2019-02-16T19:17:19.207Z,91.30
2019-02-16T19:21:45.258Z,91.20
2019-02-16T19:26:01.764Z,91.10
2019-02-16T19:30:28.626Z,91.10
2019-02-16T19:34:51.868Z,91.20
2019-02-16T19:39:13.490Z,91.20
2019-02-16T19:43:39.071Z,91.20
2019-02-16T19:48:06.683Z,91.20
2019-02-16T19:52:32.732Z,91.30
2019-02-16T19:56:55.982Z,91.30
2019-02-16T20:01:08.563Z,91.20
2019-02-16T20:05:30.041Z,91.30
2019-02-16T20:09:49.617Z,91.30
2019-02-16T20:14:07.164Z,91.50
2019-02-16T20:18:30.314Z,90.90
2019-02-16T20:22:59.498Z,91.40
2019-02-16T20:27:37.336Z,91.40
2019-02-16T20:31:43.726Z,91.40
2019-02-16T20:36:18.742Z,91.50
2019-02-16T20:40:48.804Z,91.40
2019-02-16T20:45:24.978Z,91.40
2019-02-16T20:50:06.086Z,91.40
2019-02-16T20:54:21.210Z,91.50
2019-02-16T20:58:32.770Z,91.50
2019-02-16T21:03:10.924Z,91.40
2019-02-16T21:07:38.715Z,91.40
2019-02-16T21:12:05.028Z,91.50
2019-02-16T21:16:23.884Z,91.20
2019-02-16T21:20:55.702Z,91.40
2019-02-16T21:25:11.831Z,91.40
2019-02-16T21:29:25.458Z,91.40
2019-02-16T21:33:41.256Z,91.40
2019-02-16T21:38:04.510Z,91.40
2019-02-16T21:42:30.875Z,91.50
2019-02-16T21:47:06.580Z,91.50
2019-02-16T21:51:23.019Z,91.50
2019-02-16T21:55:37.170Z,91.50
2019-02-16T22:00:00.918Z,91.50
2019-02-16T22:08:52.134Z,91.20
2019-02-16T22:13:21.913Z,91.50
2019-02-16T22:17:27.397Z,91.50
2019-02-16T22:21:31.574Z,91.40
2019-02-16T22:25:35.776Z,91.40
2019-02-16T22:29:39.957Z,91.50
2019-02-16T22:33:44.158Z,91.40
2019-02-16T22:37:48.346Z,91.50
2019-02-16T22:41:52.563Z,91.20
2019-02-16T22:45:56.757Z,91.50
2019-02-16T22:50:01.130Z,91.50
2019-02-16T22:54:05.305Z,91.50
2019-02-16T22:58:09.502Z,91.50
2019-02-16T23:02:14.297Z,91.60
2019-02-16T23:06:18.506Z,91.60
2019-02-16T23:10:22.628Z,91.60
2019-02-16T23:14:26.918Z,91.60
2019-02-16T23:18:31.041Z,91.50
2019-02-16T23:22:35.159Z,91.50
2019-02-16T23:26:39.346Z,91.60
2019-02-16T23:30:43.559Z,91.70
2019-02-16T23:34:47.749Z,91.70
2019-02-16T23:38:51.918Z,91.60
2019-02-16T23:42:56.119Z,91.60
2019-02-16T23:47:00.313Z,93.80
2019-02-16T23:51:04.498Z,91.60
2019-02-16T23:55:09.150Z,91.60
2019-02-16T23:59:13.314Z,91.60
